Aviation Digital Data Service (ADDS)

Output produced by METARs form (1046 UTC 18 April 2014)
found at http://aviationweather.gov/adds/metars/
 
KBAF 180540Z 1806/1906 VRB03KT P6SM SKC 
     FM182100 18006KT P6SM SCT150